Carlock, South Dakota
Current Conditions -  °F | °C
As of 9:53 AM on Friday 19 Dec 2014 (Local Time) from KICR Reporting Station
Clear Clear  
Wind Chill: 16°   Ceiling: Unl
Heat Index: 25°   Visibility: 10mi
Dew Point: 16°   Wind: 9mph
Humidity: 69%   Direction: 210°SSW
Pressure: 30.04"   Gusts: NA
Location:  43.2419°N, 99.4287°W
Report Text: KICR 191553Z AUTO 21008KT 10SM CLR M04/M09 A3004 RMK AO2 SLP198 T10391089
Loading
Personal Weather Stations






























Interactive Weather Map New forecast layout! Learn more

10-Day Weather Forecast

Advertisements
Track Severe Weather on mobile